createdAt,value
2022-09-02T00:00:14.854Z,11.87
2022-09-02T00:01:14.896Z,11.96
2022-09-02T00:02:14.938Z,11.93
2022-09-02T00:03:14.970Z,11.89
2022-09-02T00:04:14.815Z,12.02
2022-09-02T00:05:14.804Z,11.87
2022-09-02T00:06:14.801Z,11.85
2022-09-02T00:07:14.802Z,11.85
2022-09-02T00:08:14.790Z,11.86
2022-09-02T00:09:14.764Z,11.77
2022-09-02T00:10:14.758Z,11.83
2022-09-02T00:11:14.748Z,11.86
2022-09-02T00:12:14.737Z,11.85
2022-09-02T00:13:14.734Z,11.78
2022-09-02T00:14:14.736Z,11.80
2022-09-02T00:15:14.707Z,11.78
2022-09-02T00:16:14.762Z,11.75
2022-09-02T00:17:14.690Z,11.72
2022-09-02T00:18:15.415Z,11.64
2022-09-02T00:19:14.673Z,11.75
2022-09-02T00:20:14.663Z,11.54
2022-09-02T00:21:14.658Z,11.70
2022-09-02T00:22:14.644Z,11.46
2022-09-02T00:23:14.644Z,11.47
2022-09-02T00:24:14.621Z,11.62
2022-09-02T00:25:14.629Z,11.65
2022-09-02T00:26:14.605Z,11.86
2022-09-02T00:27:14.590Z,11.78
2022-09-02T00:28:14.598Z,11.82
2022-09-02T00:29:14.595Z,11.97
2022-09-02T00:30:14.565Z,11.83
2022-09-02T00:31:14.577Z,11.87
2022-09-02T00:32:14.535Z,11.96
2022-09-02T00:33:14.548Z,11.82
2022-09-02T00:34:14.520Z,11.97
2022-09-02T00:35:14.513Z,11.93
2022-09-02T00:36:14.497Z,12.04
2022-09-02T00:37:14.495Z,11.97
2022-09-02T00:38:14.491Z,11.94
2022-09-02T00:39:14.478Z,12.09
2022-09-02T00:40:14.557Z,11.99
2022-09-02T00:41:14.457Z,12.01
2022-09-02T00:42:14.440Z,12.04
2022-09-02T00:43:14.475Z,12.04
2022-09-02T00:44:14.437Z,12.09
2022-09-02T00:45:14.419Z,12.24
2022-09-02T00:46:14.446Z,12.33
2022-09-02T00:47:14.402Z,12.13
2022-09-02T00:48:14.403Z,12.06
2022-09-02T00:49:14.382Z,12.21
2022-09-02T00:50:14.372Z,12.16
2022-09-02T00:51:14.361Z,12.15
2022-09-02T00:52:14.351Z,12.21
2022-09-02T00:53:14.400Z,12.19
2022-09-02T00:54:14.335Z,12.11
2022-09-02T00:55:14.337Z,12.04
2022-09-02T00:56:14.312Z,12.01
2022-09-02T00:57:14.307Z,11.96
2022-09-02T00:58:14.384Z,12.01
2022-09-02T00:59:14.289Z,12.08
2022-09-02T01:00:14.269Z,12.11
2022-09-02T01:01:14.454Z,12.09
2022-09-02T01:02:14.353Z,11.83
2022-09-02T01:03:14.327Z,11.96
2022-09-02T01:04:14.239Z,11.90
2022-09-02T01:05:14.230Z,11.94
2022-09-02T01:06:14.246Z,11.78
2022-09-02T01:07:14.210Z,11.94
2022-09-02T01:08:14.207Z,11.87
2022-09-02T01:09:14.194Z,11.83
2022-09-02T01:10:14.176Z,12.02
2022-09-02T01:11:14.173Z,11.87
2022-09-02T01:12:14.170Z,11.96
2022-09-02T01:13:14.170Z,11.93
2022-09-02T01:14:14.143Z,11.99
2022-09-02T01:15:14.134Z,12.12
2022-09-02T01:16:14.140Z,12.11
2022-09-02T01:17:14.120Z,12.13
2022-09-02T01:18:14.121Z,12.06
2022-09-02T01:19:14.147Z,11.97
2022-09-02T01:20:14.085Z,11.93
2022-09-02T01:21:14.083Z,11.96
2022-09-02T01:22:14.071Z,11.77
2022-09-02T01:23:14.139Z,11.72
2022-09-02T01:24:14.049Z,11.75
2022-09-02T01:25:14.067Z,11.86
2022-09-02T01:26:14.031Z,11.87
2022-09-02T01:27:14.029Z,11.80
2022-09-02T01:28:14.028Z,11.71
2022-09-02T01:29:14.005Z,11.80
2022-09-02T01:30:14.023Z,11.82
2022-09-02T01:31:14.093Z,11.86
2022-09-02T01:32:13.979Z,11.87
2022-09-02T01:33:14.034Z,12.08
2022-09-02T01:34:13.955Z,12.06
2022-09-02T01:35:13.952Z,11.99
2022-09-02T01:36:13.935Z,11.96
2022-09-02T01:37:13.926Z,12.02
2022-09-02T01:38:13.944Z,12.08
2022-09-02T01:39:13.915Z,12.19
2022-09-02T01:40:13.944Z,12.12
2022-09-02T01:41:13.884Z,12.08
2022-09-02T01:42:13.875Z,12.16
2022-09-02T01:43:13.949Z,12.16
2022-09-02T01:44:13.854Z,12.09
2022-09-02T01:45:13.932Z,12.09
2022-09-02T01:46:13.884Z,12.09
2022-09-02T01:47:13.831Z,12.26
2022-09-02T01:48:13.870Z,12.31
2022-09-02T01:49:13.808Z,12.27
2022-09-02T01:50:13.803Z,12.38
2022-09-02T01:51:13.792Z,12.41
2022-09-02T01:52:13.778Z,12.42
2022-09-02T01:53:13.828Z,12.31
2022-09-02T01:54:13.760Z,12.37
2022-09-02T01:55:13.755Z,12.38
2022-09-02T01:56:13.746Z,12.48
2022-09-02T01:57:13.739Z,12.39
2022-09-02T01:58:13.739Z,12.48
2022-09-02T01:59:13.718Z,12.42
2022-09-02T02:00:13.714Z,12.45
2022-09-02T02:01:13.800Z,12.44
2022-09-02T02:02:13.729Z,12.31
2022-09-02T02:03:13.703Z,12.27
2022-09-02T02:04:13.739Z,12.31
2022-09-02T02:05:13.658Z,12.27
2022-09-02T02:06:13.641Z,12.19
2022-09-02T02:07:13.634Z,12.16
2022-09-02T02:08:13.633Z,12.09
2022-09-02T02:09:13.610Z,12.05
2022-09-02T02:10:13.647Z,12.04
2022-09-02T02:11:13.599Z,12.06
2022-09-02T02:12:13.582Z,12.01
2022-09-02T02:13:13.688Z,11.99
2022-09-02T02:14:13.562Z,11.85
2022-09-02T02:15:13.557Z,11.89
2022-09-02T02:16:13.586Z,11.87
2022-09-02T02:17:13.541Z,11.89
2022-09-02T02:18:13.543Z,11.80
2022-09-02T02:19:13.531Z,11.82
2022-09-02T02:20:13.511Z,11.94
2022-09-02T02:21:13.499Z,11.93
2022-09-02T02:22:13.486Z,11.90
2022-09-02T02:23:13.589Z,11.89
2022-09-02T02:24:13.475Z,11.87
2022-09-02T02:25:13.469Z,11.80
2022-09-02T02:26:13.525Z,11.86
2022-09-02T02:27:13.441Z,11.87
2022-09-02T02:28:13.441Z,11.83
2022-09-02T02:29:13.443Z,11.97
2022-09-02T02:30:13.415Z,11.94
2022-09-02T02:31:13.428Z,12.04
2022-09-02T02:32:13.391Z,12.06
2022-09-02T02:33:13.382Z,12.02
2022-09-02T02:34:13.386Z,12.02
2022-09-02T02:35:13.364Z,12.12
2022-09-02T02:36:13.358Z,12.13
2022-09-02T02:37:13.426Z,12.06
2022-09-02T02:38:14.433Z,12.19
2022-09-02T02:39:13.350Z,12.19
2022-09-02T02:40:13.338Z,12.13
2022-09-02T02:41:13.311Z,12.12
2022-09-02T02:42:13.301Z,12.12
2022-09-02T02:43:13.293Z,12.20
2022-09-02T02:44:13.293Z,12.21
2022-09-02T02:45:15.339Z,12.26
2022-09-02T02:46:13.291Z,12.20
2022-09-02T02:47:13.251Z,12.26
2022-09-02T02:48:13.237Z,12.21
2022-09-02T02:49:13.241Z,12.06
2022-09-02T02:50:13.249Z,12.09
2022-09-02T02:51:13.233Z,12.11
2022-09-02T02:52:13.217Z,11.94
2022-09-02T02:53:14.138Z,12.04
2022-09-02T02:54:13.196Z,12.08
2022-09-02T02:55:13.175Z,12.02
2022-09-02T02:56:13.164Z,12.01
2022-09-02T02:57:13.156Z,11.97
2022-09-02T02:58:13.143Z,11.93
2022-09-02T02:59:13.164Z,12.02
2022-09-02T03:00:13.120Z,12.01
2022-09-02T03:01:13.119Z,11.93
2022-09-02T03:02:13.244Z,11.90
2022-09-02T03:03:13.101Z,11.82
2022-09-02T03:04:13.100Z,11.87
2022-09-02T03:05:13.082Z,11.94
2022-09-02T03:06:13.071Z,12.06
2022-09-02T03:07:13.067Z,12.23
2022-09-02T03:08:13.045Z,12.19
2022-09-02T03:09:13.060Z,12.24
2022-09-02T03:10:13.104Z,12.31
2022-09-02T03:11:13.022Z,12.21
2022-09-02T03:12:13.010Z,12.37
2022-09-02T03:13:13.007Z,12.34
2022-09-02T03:14:12.998Z,12.37
2022-09-02T03:15:12.979Z,12.29
2022-09-02T03:16:12.987Z,12.34
2022-09-02T03:17:12.957Z,12.29
2022-09-02T03:18:12.948Z,12.37
2022-09-02T03:19:12.956Z,12.42
2022-09-02T03:20:12.924Z,12.39
2022-09-02T03:21:12.919Z,12.41
2022-09-02T03:22:12.931Z,12.31
2022-09-02T03:23:12.898Z,12.24
2022-09-02T03:24:12.900Z,12.04
2022-09-02T03:25:12.884Z,12.16
2022-09-02T03:26:12.870Z,12.11
2022-09-02T03:27:12.867Z,12.20
2022-09-02T03:28:12.847Z,12.11
2022-09-02T03:29:12.864Z,12.09
2022-09-02T03:30:12.875Z,12.09
2022-09-02T03:31:12.851Z,12.04
2022-09-02T03:32:12.812Z,12.05
2022-09-02T03:33:12.806Z,12.06
2022-09-02T03:34:12.809Z,12.12
2022-09-02T03:35:12.786Z,12.26
2022-09-02T03:36:12.774Z,12.29
2022-09-02T03:37:12.798Z,12.09
2022-09-02T03:38:12.751Z,12.21
2022-09-02T03:39:12.759Z,12.26
2022-09-02T03:40:12.777Z,12.20
2022-09-02T03:41:12.727Z,12.20
2022-09-02T03:42:19.217Z,12.21
2022-09-02T03:43:13.759Z,12.27
2022-09-02T03:44:12.702Z,12.26
2022-09-02T03:45:12.699Z,12.33
2022-09-02T03:46:12.719Z,12.26
2022-09-02T03:47:12.666Z,12.29
2022-09-02T03:48:12.656Z,12.31
2022-09-02T03:49:12.648Z,12.23
2022-09-02T03:50:12.741Z,12.39
2022-09-02T03:51:12.622Z,12.34
2022-09-02T03:52:12.606Z,12.42
2022-09-02T03:53:18.245Z,12.49
2022-09-02T03:54:12.589Z,12.48
2022-09-02T03:55:12.621Z,12.42
2022-09-02T03:56:13.105Z,12.52
2022-09-02T03:57:12.566Z,12.54
2022-09-02T03:58:12.555Z,12.56
2022-09-02T03:59:12.546Z,12.71
2022-09-02T04:00:12.673Z,12.69
2022-09-02T04:01:12.549Z,12.66
2022-09-02T04:02:12.658Z,12.64
2022-09-02T04:03:12.527Z,12.63
2022-09-02T04:04:12.490Z,12.67
2022-09-02T04:05:15.639Z,12.69
2022-09-02T04:06:12.469Z,12.67
2022-09-02T04:07:12.468Z,12.51
2022-09-02T04:08:12.453Z,12.60
2022-09-02T04:09:12.444Z,12.45
2022-09-02T04:10:12.445Z,12.56
2022-09-02T04:11:12.424Z,12.52
2022-09-02T04:12:12.415Z,12.49
2022-09-02T04:13:12.408Z,12.49
2022-09-02T04:14:12.408Z,12.42
2022-09-02T04:15:12.398Z,12.44
2022-09-02T04:16:12.415Z,12.44
2022-09-02T04:17:12.361Z,12.49
2022-09-02T04:18:12.353Z,12.59
2022-09-02T04:19:12.346Z,12.45
2022-09-02T04:20:12.356Z,12.41
2022-09-02T04:21:12.329Z,12.45
2022-09-02T04:22:12.318Z,12.63
2022-09-02T04:23:12.309Z,12.60
2022-09-02T04:24:12.302Z,12.69
2022-09-02T04:25:12.302Z,12.69
2022-09-02T04:26:12.341Z,12.75
2022-09-02T04:27:12.272Z,12.70
2022-09-02T04:28:12.269Z,12.70
2022-09-02T04:29:12.247Z,12.84
2022-09-02T04:30:12.256Z,12.88
2022-09-02T04:31:12.317Z,12.78
2022-09-02T04:32:12.224Z,12.79
2022-09-02T04:33:12.206Z,12.77
2022-09-02T04:34:12.197Z,12.75
2022-09-02T04:35:12.206Z,12.64
2022-09-02T04:36:12.808Z,12.70
2022-09-02T04:37:12.177Z,12.64
2022-09-02T04:38:12.166Z,12.66
2022-09-02T04:39:12.156Z,12.85
2022-09-02T04:40:12.231Z,12.88
2022-09-02T04:41:12.133Z,12.84
2022-09-02T04:42:12.124Z,12.85
2022-09-02T04:43:12.131Z,12.87
2022-09-02T04:44:12.122Z,12.93
2022-09-02T04:45:12.108Z,12.89
2022-09-02T04:46:12.268Z,12.88
2022-09-02T04:47:12.079Z,12.89
2022-09-02T04:48:12.081Z,12.87
2022-09-02T04:49:12.060Z,12.92
2022-09-02T04:50:12.064Z,12.79
2022-09-02T04:51:12.033Z,12.67
2022-09-02T04:52:12.040Z,12.82
2022-09-02T04:53:12.090Z,12.79
2022-09-02T04:54:12.015Z,12.87
2022-09-02T04:55:12.023Z,12.88
2022-09-02T04:56:12.018Z,12.87
2022-09-02T04:57:11.981Z,12.82
2022-09-02T04:58:11.971Z,12.92
2022-09-02T04:59:11.961Z,12.96
2022-09-02T05:00:11.971Z,13.11
2022-09-02T05:01:12.030Z,13.12
2022-09-02T05:02:12.105Z,13.14
2022-09-02T05:03:11.918Z,13.25
2022-09-02T05:04:11.944Z,13.14
2022-09-02T05:05:11.907Z,13.20
2022-09-02T05:06:11.897Z,13.20
2022-09-02T05:07:11.883Z,13.21
2022-09-02T05:08:11.904Z,13.27
2022-09-02T05:09:11.860Z,13.20
2022-09-02T05:10:11.874Z,13.15
2022-09-02T05:11:11.841Z,13.20
2022-09-02T05:12:11.838Z,13.25
2022-09-02T05:13:11.825Z,13.12
2022-09-02T05:14:11.816Z,13.24
2022-09-02T05:15:11.833Z,13.14
2022-09-02T05:16:11.847Z,13.33
2022-09-02T05:17:11.786Z,13.30
2022-09-02T05:18:11.778Z,13.32
2022-09-02T05:19:11.774Z,13.38
2022-09-02T05:20:11.776Z,13.36
2022-09-02T05:21:11.750Z,13.36
2022-09-02T05:22:11.741Z,13.41
2022-09-02T05:23:11.726Z,13.41
2022-09-02T05:24:11.724Z,13.32
2022-09-02T05:25:11.716Z,13.40
2022-09-02T05:26:11.707Z,13.41
2022-09-02T05:27:11.687Z,13.47
2022-09-02T05:28:11.696Z,13.41
2022-09-02T05:29:11.665Z,13.37
2022-09-02T05:30:11.678Z,13.46
2022-09-02T05:31:11.704Z,13.41
2022-09-02T05:32:11.640Z,13.51
2022-09-02T05:33:13.596Z,13.51
2022-09-02T05:34:11.619Z,13.37
2022-09-02T05:35:11.640Z,13.27
2022-09-02T05:36:11.604Z,13.38
2022-09-02T05:37:11.596Z,13.40
2022-09-02T05:38:11.581Z,13.30
2022-09-02T05:39:11.578Z,13.25
2022-09-02T05:40:11.646Z,13.37
2022-09-02T05:41:11.542Z,13.21
2022-09-02T05:42:11.550Z,13.33
2022-09-02T05:43:11.532Z,13.32
2022-09-02T05:44:11.530Z,13.38
2022-09-02T05:45:11.526Z,13.25
2022-09-02T05:46:11.773Z,13.27
2022-09-02T05:47:11.491Z,13.41
2022-09-02T05:48:11.498Z,13.52
2022-09-02T05:49:11.491Z,13.46
2022-09-02T05:50:11.477Z,13.49
2022-09-02T05:51:11.448Z,13.51
2022-09-02T05:52:11.445Z,13.38
2022-09-02T05:53:14.716Z,13.52
2022-09-02T05:54:11.422Z,13.58
2022-09-02T05:55:11.698Z,13.59
2022-09-02T05:56:11.406Z,13.77
2022-09-02T05:57:11.391Z,13.83
2022-09-02T05:58:11.384Z,13.77
2022-09-02T05:59:11.378Z,13.81
2022-09-02T06:00:11.388Z,13.70
2022-09-02T06:01:12.356Z,13.77
2022-09-02T06:02:11.583Z,13.63
2022-09-02T06:03:11.380Z,13.71
2022-09-02T06:04:11.324Z,13.74
2022-09-02T06:05:11.311Z,13.99
2022-09-02T06:06:11.315Z,13.94
2022-09-02T06:07:11.774Z,13.91
2022-09-02T06:08:11.290Z,14.01
2022-09-02T06:09:11.275Z,14.01
2022-09-02T06:10:11.268Z,14.01
2022-09-02T06:11:11.267Z,14.10
2022-09-02T06:12:11.249Z,14.21
2022-09-02T06:13:11.237Z,14.10
2022-09-02T06:14:11.229Z,14.20
2022-09-02T06:15:11.211Z,14.27
2022-09-02T06:16:11.285Z,14.12
2022-09-02T06:17:11.194Z,14.16
2022-09-02T06:18:11.187Z,14.09
2022-09-02T06:19:11.167Z,14.07
2022-09-02T06:20:11.949Z,14.07
2022-09-02T06:21:11.170Z,14.02
2022-09-02T06:22:11.532Z,14.04
2022-09-02T06:23:11.129Z,14.01
2022-09-02T06:24:11.126Z,14.07
2022-09-02T06:25:11.112Z,14.07
2022-09-02T06:26:11.124Z,14.09
2022-09-02T06:27:11.101Z,14.25
2022-09-02T06:28:11.087Z,14.32
2022-09-02T06:29:11.085Z,14.44
2022-09-02T06:30:11.103Z,14.38
2022-09-02T06:31:11.120Z,14.42
2022-09-02T06:32:11.050Z,14.43
2022-09-02T06:33:11.039Z,14.42
2022-09-02T06:34:11.022Z,14.44
2022-09-02T06:35:11.023Z,14.47
2022-09-02T06:36:11.089Z,14.50
2022-09-02T06:37:10.996Z,14.60
2022-09-02T06:38:10.989Z,14.69
2022-09-02T06:39:10.977Z,14.71
2022-09-02T06:40:11.153Z,14.68
2022-09-02T06:41:10.954Z,14.75
2022-09-02T06:42:10.956Z,14.75
2022-09-02T06:43:10.940Z,14.78
2022-09-02T06:44:10.927Z,14.84
2022-09-02T06:45:10.929Z,14.86
2022-09-02T06:46:10.970Z,14.95
2022-09-02T06:47:10.899Z,14.84
2022-09-02T06:48:10.888Z,15.03
2022-09-02T06:49:10.876Z,15.13
2022-09-02T06:50:10.868Z,15.12
2022-09-02T06:51:10.865Z,15.27
2022-09-02T06:52:10.862Z,15.30
2022-09-02T06:53:10.836Z,15.21
2022-09-02T06:54:10.903Z,15.28
2022-09-02T06:55:10.821Z,15.26
2022-09-02T06:56:10.832Z,15.23
2022-09-02T06:57:10.808Z,15.38
2022-09-02T06:58:10.791Z,15.46
2022-09-02T06:59:10.785Z,15.42
2022-09-02T07:00:10.774Z,15.39
2022-09-02T07:01:10.866Z,15.39
2022-09-02T07:02:10.940Z,15.54
2022-09-02T07:03:10.734Z,15.57
2022-09-02T07:04:10.730Z,15.49
2022-09-02T07:05:10.723Z,15.61
2022-09-02T07:06:10.717Z,15.70
2022-09-02T07:07:10.697Z,15.61
2022-09-02T07:08:10.692Z,15.78
2022-09-02T07:09:10.718Z,15.93
2022-09-02T07:10:10.683Z,15.94
2022-09-02T07:11:10.670Z,16.03
2022-09-02T07:12:10.649Z,16.00
2022-09-02T07:13:10.633Z,16.04
2022-09-02T07:14:10.629Z,16.22
2022-09-02T07:15:10.625Z,16.37
2022-09-02T07:16:10.661Z,16.50
2022-09-02T07:17:10.638Z,16.58
2022-09-02T07:18:10.583Z,16.68
2022-09-02T07:19:15.021Z,16.71
2022-09-02T07:20:11.567Z,16.73
2022-09-02T07:21:10.566Z,16.80
2022-09-02T07:22:10.547Z,16.92
2022-09-02T07:23:10.530Z,16.95
2022-09-02T07:24:10.527Z,16.92
2022-09-02T07:25:10.509Z,17.04
2022-09-02T07:26:10.582Z,17.29
2022-09-02T07:27:10.493Z,17.33
2022-09-02T07:28:10.494Z,17.38
2022-09-02T07:29:10.475Z,17.46
2022-09-02T07:30:10.468Z,17.46
2022-09-02T07:31:10.489Z,17.41
2022-09-02T07:32:10.449Z,17.57
2022-09-02T07:33:10.434Z,17.70
2022-09-02T07:34:10.427Z,17.78
2022-09-02T07:35:10.417Z,17.89
2022-09-02T07:36:11.148Z,18.02
2022-09-02T07:37:11.091Z,18.03
2022-09-02T07:38:10.389Z,18.13
2022-09-02T07:39:10.374Z,18.10
2022-09-02T07:40:10.414Z,18.24
2022-09-02T07:41:10.384Z,18.25
2022-09-02T07:42:10.349Z,18.25
2022-09-02T07:43:10.338Z,18.36
2022-09-02T07:44:10.325Z,18.49
2022-09-02T07:45:10.318Z,18.46
2022-09-02T07:46:10.399Z,18.57
2022-09-02T07:47:10.295Z,18.55
2022-09-02T07:48:10.293Z,18.47
2022-09-02T07:49:10.277Z,18.58
2022-09-02T07:50:20.091Z,18.58
2022-09-02T07:51:11.274Z,18.68
2022-09-02T07:52:10.253Z,18.72
2022-09-02T07:53:10.240Z,18.73
2022-09-02T07:54:10.235Z,18.83
2022-09-02T07:55:14.499Z,18.86
2022-09-02T07:56:10.227Z,18.98
2022-09-02T07:57:10.202Z,19.01
2022-09-02T07:58:10.192Z,18.97
2022-09-02T07:59:11.184Z,19.10
2022-09-02T08:00:10.178Z,19.29
2022-09-02T08:01:10.294Z,19.11
2022-09-02T08:02:10.194Z,19.17
2022-09-02T08:03:10.212Z,19.25
2022-09-02T08:04:10.133Z,19.28
2022-09-02T08:05:10.136Z,19.35
2022-09-02T08:06:10.141Z,19.43
2022-09-02T08:07:10.122Z,19.57
2022-09-02T08:08:10.111Z,19.54
2022-09-02T08:09:10.090Z,19.61
2022-09-02T08:10:10.081Z,19.66
2022-09-02T08:11:10.087Z,19.61
2022-09-02T08:12:10.063Z,19.80
2022-09-02T08:13:10.053Z,19.76
2022-09-02T08:14:10.047Z,19.76
2022-09-02T08:15:10.027Z,19.91
2022-09-02T08:16:10.116Z,19.87
2022-09-02T08:17:10.013Z,19.93
2022-09-02T08:18:14.465Z,19.98
2022-09-02T08:19:10.985Z,20.06
2022-09-02T08:20:12.434Z,19.90
2022-09-02T08:21:09.991Z,19.93
2022-09-02T08:22:09.968Z,19.90
2022-09-02T08:23:18.449Z,20.03
2022-09-02T08:24:10.951Z,20.06
2022-09-02T08:25:09.931Z,20.27
2022-09-02T08:26:09.960Z,20.23
2022-09-02T08:27:09.931Z,20.38
2022-09-02T08:28:09.908Z,20.58
2022-09-02T08:29:09.894Z,21.06
2022-09-02T08:30:09.932Z,21.26
2022-09-02T08:31:09.898Z,21.88
2022-09-02T08:32:09.925Z,22.54
2022-09-02T08:33:09.858Z,23.47
2022-09-02T08:34:09.859Z,24.05
2022-09-02T08:35:09.835Z,24.64
2022-09-02T08:36:09.846Z,24.60
2022-09-02T08:37:09.820Z,24.34
2022-09-02T08:38:09.814Z,24.35
2022-09-02T08:39:09.813Z,24.44
2022-09-02T08:40:09.864Z,24.61
2022-09-02T08:41:09.798Z,24.45
2022-09-02T08:42:09.774Z,24.12
2022-09-02T08:43:09.767Z,24.17
2022-09-02T08:44:09.872Z,23.98
2022-09-02T08:45:09.735Z,24.22
2022-09-02T08:46:09.859Z,24.34
2022-09-02T08:47:09.724Z,24.41
2022-09-02T08:48:09.738Z,24.67
2022-09-02T08:49:09.702Z,24.56
2022-09-02T08:50:09.708Z,24.57
2022-09-02T08:51:10.043Z,24.56
2022-09-02T08:52:09.670Z,24.59
2022-09-02T08:53:09.661Z,24.59
2022-09-02T08:54:09.649Z,24.69
2022-09-02T08:55:09.644Z,24.75
2022-09-02T08:56:09.632Z,24.91
2022-09-02T08:57:09.685Z,24.85
2022-09-02T08:58:09.620Z,24.68
2022-09-02T08:59:09.602Z,24.64
2022-09-02T09:00:09.590Z,24.59
2022-09-02T09:01:09.668Z,24.64
2022-09-02T09:02:09.665Z,24.54
2022-09-02T09:03:09.565Z,24.64
2022-09-02T09:04:09.581Z,24.60
2022-09-02T09:05:09.545Z,24.69
2022-09-02T09:06:09.541Z,24.80
2022-09-02T09:07:09.552Z,24.83
2022-09-02T09:08:12.382Z,24.90
2022-09-02T09:09:10.506Z,24.97
2022-09-02T09:10:09.501Z,24.95
2022-09-02T09:11:09.497Z,24.95
2022-09-02T09:12:09.488Z,25.09
2022-09-02T09:13:09.477Z,25.19
2022-09-02T09:14:09.474Z,25.47
2022-09-02T09:15:09.456Z,25.61
2022-09-02T09:16:09.492Z,25.59
2022-09-02T09:17:09.465Z,25.74
2022-09-02T09:18:09.444Z,25.77
2022-09-02T09:19:09.433Z,25.87
2022-09-02T09:20:09.421Z,25.99
2022-09-02T09:21:10.377Z,25.74
2022-09-02T09:22:09.662Z,25.64
2022-09-02T09:23:09.431Z,25.71
2022-09-02T09:24:09.363Z,25.75
2022-09-02T09:25:09.387Z,25.74
2022-09-02T09:26:09.352Z,25.75
2022-09-02T09:27:09.350Z,25.68
2022-09-02T09:28:09.343Z,25.75
2022-09-02T09:29:09.320Z,25.84
2022-09-02T09:30:14.319Z,26.05
2022-09-02T09:31:09.453Z,25.94
2022-09-02T09:32:09.330Z,25.93
2022-09-02T09:33:09.283Z,25.84
2022-09-02T09:34:09.267Z,25.90
2022-09-02T09:35:09.258Z,25.99
2022-09-02T09:36:09.251Z,26.05
2022-09-02T09:37:09.265Z,25.97
2022-09-02T09:38:09.248Z,26.01
2022-09-02T09:39:09.224Z,26.02
2022-09-02T09:40:09.230Z,26.32
2022-09-02T09:41:09.203Z,26.57
2022-09-02T09:42:09.558Z,26.73
2022-09-02T09:43:14.179Z,26.52
2022-09-02T09:44:10.172Z,26.54
2022-09-02T09:45:09.169Z,26.65
2022-09-02T09:46:09.196Z,26.77
2022-09-02T09:47:09.169Z,26.91
2022-09-02T09:48:09.140Z,27.10
2022-09-02T09:49:09.136Z,27.11
2022-09-02T09:50:09.196Z,27.32
2022-09-02T09:51:09.191Z,27.26
2022-09-02T09:52:09.125Z,27.23
2022-09-02T09:53:09.103Z,27.05
2022-09-02T09:54:09.084Z,26.91
2022-09-02T09:55:11.547Z,26.89
2022-09-02T09:56:09.071Z,26.92
2022-09-02T09:57:09.083Z,27.23
2022-09-02T09:58:09.046Z,27.66
2022-09-02T09:59:09.085Z,28.14
2022-09-02T10:00:09.032Z,28.32
2022-09-02T10:01:09.062Z,28.60
2022-09-02T10:02:09.015Z,28.82
2022-09-02T10:03:09.012Z,28.65
2022-09-02T10:04:32.319Z,28.75
2022-09-02T10:05:09.976Z,28.72
2022-09-02T10:06:08.963Z,28.33
2022-09-02T10:07:08.961Z,28.31
2022-09-02T10:08:10.852Z,28.40
2022-09-02T10:09:09.936Z,28.25
2022-09-02T10:10:08.930Z,28.19
2022-09-02T10:11:08.916Z,28.47
2022-09-02T10:12:08.909Z,28.63
2022-09-02T10:13:09.016Z,28.84
2022-09-02T10:14:08.896Z,28.80
2022-09-02T10:15:08.885Z,28.53
2022-09-02T10:16:08.917Z,28.26
2022-09-02T10:17:08.866Z,28.11
2022-09-02T10:18:08.867Z,27.74
2022-09-02T10:19:08.841Z,28.04
2022-09-02T10:20:08.831Z,28.51
2022-09-02T10:21:15.418Z,29.33
2022-09-02T10:22:09.817Z,30.19
2022-09-02T10:23:08.821Z,30.71
2022-09-02T10:24:08.795Z,30.75
2022-09-02T10:25:08.792Z,30.67
2022-09-02T10:26:08.783Z,30.65
2022-09-02T10:27:08.788Z,30.72
2022-09-02T10:28:08.758Z,31.58
2022-09-02T10:29:08.751Z,32.10
2022-09-02T10:30:08.738Z,31.61
2022-09-02T10:31:08.787Z,30.72
2022-09-02T10:32:08.741Z,30.31
2022-09-02T10:33:08.717Z,29.81
2022-09-02T10:34:08.704Z,29.31
2022-09-02T10:35:08.697Z,28.90
2022-09-02T10:36:08.687Z,28.69
2022-09-02T10:37:08.688Z,28.65
2022-09-02T10:38:08.717Z,28.72
2022-09-02T10:39:08.661Z,28.65
2022-09-02T10:40:08.743Z,28.69
2022-09-02T10:41:08.639Z,28.72
2022-09-02T10:42:08.651Z,28.54
2022-09-02T10:43:08.620Z,28.31
2022-09-02T10:44:08.616Z,28.38
2022-09-02T10:45:08.608Z,28.22
2022-09-02T10:46:08.590Z,27.92
2022-09-02T10:47:08.586Z,27.91
2022-09-02T10:48:08.642Z,27.79
2022-09-02T10:49:08.559Z,27.53
2022-09-02T10:50:08.551Z,27.54
2022-09-02T10:51:08.543Z,27.58
2022-09-02T10:52:08.567Z,27.21
2022-09-02T10:53:09.597Z,27.13
2022-09-02T10:54:08.507Z,27.02
2022-09-02T10:55:08.506Z,26.91
2022-09-02T10:56:08.491Z,26.91
2022-09-02T10:57:08.486Z,26.81
2022-09-02T10:58:08.480Z,26.62
2022-09-02T10:59:08.463Z,26.59
2022-09-02T11:00:08.451Z,26.52
2022-09-02T11:01:08.498Z,26.39
2022-09-02T11:02:08.432Z,26.37
2022-09-02T11:03:08.787Z,26.46
2022-09-02T11:04:08.408Z,26.36
2022-09-02T11:05:08.402Z,26.40
2022-09-02T11:06:08.394Z,26.61
2022-09-02T11:07:08.384Z,26.86
2022-09-02T11:08:08.389Z,27.21
2022-09-02T11:09:08.365Z,27.71
2022-09-02T11:10:08.353Z,27.74
2022-09-02T11:11:08.344Z,27.50
2022-09-02T11:12:08.329Z,27.66
2022-09-02T11:13:08.339Z,28.95
2022-09-02T11:14:08.338Z,28.93
2022-09-02T11:15:08.308Z,28.85
2022-09-02T11:16:08.353Z,28.80
2022-09-02T11:17:13.168Z,28.73
2022-09-02T11:18:09.318Z,27.86
2022-09-02T11:19:08.274Z,27.29
2022-09-02T11:20:08.256Z,26.98
2022-09-02T11:21:08.253Z,26.94
2022-09-02T11:22:08.242Z,27.09
2022-09-02T11:23:08.248Z,27.20
2022-09-02T11:24:08.223Z,27.16
2022-09-02T11:25:08.233Z,27.32
2022-09-02T11:26:08.200Z,27.35
2022-09-02T11:27:25.491Z,26.96
2022-09-02T11:28:09.194Z,26.91
2022-09-02T11:29:08.185Z,27.04
2022-09-02T11:30:08.181Z,27.17
2022-09-02T11:31:08.165Z,28.04
2022-09-02T11:32:08.155Z,29.41
2022-09-02T11:33:08.160Z,29.93
2022-09-02T11:34:08.160Z,30.69
2022-09-02T11:35:08.129Z,30.78
2022-09-02T11:36:08.246Z,30.71
2022-09-02T11:37:08.107Z,30.50
2022-09-02T11:38:08.106Z,30.31
2022-09-02T11:39:08.105Z,30.03
2022-09-02T11:40:30.592Z,29.37
2022-09-02T11:42:09.086Z,29.06
2022-09-02T11:43:08.066Z,28.88
2022-09-02T11:44:08.037Z,28.91
2022-09-02T11:45:08.056Z,28.78
2022-09-02T11:46:08.040Z,28.70
2022-09-02T11:47:08.019Z,28.66
2022-09-02T11:48:08.018Z,28.50
2022-09-02T11:49:08.387Z,28.32
2022-09-02T11:50:07.975Z,28.58
2022-09-02T11:51:08.029Z,28.80
2022-09-02T11:52:07.957Z,29.35
2022-09-02T11:53:07.970Z,29.66
2022-09-02T11:54:07.939Z,30.02
2022-09-02T11:55:07.931Z,30.37
2022-09-02T11:56:07.921Z,30.75
2022-09-02T11:57:07.939Z,31.17
2022-09-02T11:58:07.926Z,31.42
2022-09-02T11:59:07.897Z,31.35
2022-09-02T12:00:07.880Z,31.49
2022-09-02T12:01:07.881Z,31.30
2022-09-02T12:02:07.860Z,31.36
2022-09-02T12:03:22.338Z,31.33
2022-09-02T12:05:09.234Z,30.24
2022-09-02T12:06:07.902Z,29.74
2022-09-02T12:07:08.964Z,29.62
2022-09-02T12:08:07.807Z,29.74
2022-09-02T12:09:07.812Z,29.68
2022-09-02T12:10:07.784Z,29.62
2022-09-02T12:11:07.775Z,29.28
2022-09-02T12:12:07.766Z,29.15
2022-09-02T12:13:08.386Z,29.01
2022-09-02T12:14:08.189Z,29.03
2022-09-02T12:15:07.745Z,29.20
2022-09-02T12:16:07.766Z,29.34
2022-09-02T12:17:07.726Z,29.22
2022-09-02T12:18:07.722Z,29.18
2022-09-02T12:19:07.882Z,29.00
2022-09-02T12:20:07.689Z,29.06
2022-09-02T12:21:07.683Z,29.49
2022-09-02T12:22:07.698Z,30.75
2022-09-02T12:23:07.679Z,32.93
2022-09-02T12:24:07.655Z,34.94
2022-09-02T12:25:07.643Z,34.04
2022-09-02T12:26:07.636Z,32.89
2022-09-02T12:27:07.625Z,32.47
2022-09-02T12:28:07.636Z,33.67
2022-09-02T12:29:07.612Z,34.50
2022-09-02T12:30:07.601Z,35.28
2022-09-02T12:31:07.880Z,36.58
2022-09-02T12:32:07.579Z,38.08
2022-09-02T12:33:07.585Z,39.09
2022-09-02T12:34:07.563Z,38.75
2022-09-02T12:35:07.555Z,37.85
2022-09-02T12:36:07.550Z,37.80
2022-09-02T12:37:07.537Z,37.33
2022-09-02T12:38:07.548Z,36.14
2022-09-02T12:39:09.885Z,35.85
2022-09-02T12:40:07.648Z,35.50
2022-09-02T12:41:07.729Z,35.06
2022-09-02T12:42:07.495Z,34.70
2022-09-02T12:43:07.500Z,34.41
2022-09-02T12:44:07.467Z,35.40
2022-09-02T12:45:07.468Z,35.29
2022-09-02T12:46:07.494Z,35.91
2022-09-02T12:47:07.445Z,36.39
2022-09-02T12:48:07.446Z,37.42
2022-09-02T12:49:07.428Z,38.45
2022-09-02T12:50:07.417Z,39.10
2022-09-02T12:51:07.421Z,39.28
2022-09-02T12:52:07.402Z,39.51
2022-09-02T12:53:07.413Z,38.68
2022-09-02T12:54:07.380Z,37.35